Time;durP1;ratioP1;P1;durP2;ratioP2;P2;SDS_P1;SDS_P2;PMS_P1;PMS_P2;Temp;Humidity;BMP_temperature;BMP_pressure;BME280_temperature;BME280_humidity;BME280_pressure;Samples;Min_cycle;Max_cycle;Signal;HPM_P1;HPM_P2
2021/03/08 00:00:35;;;;;;;1.65;1.30;;;20.30;43.90;;;;;;5087175;28;20036;-39
2021/03/08 00:03:01;;;;;;;1.55;1.08;;;20.30;43.90;;;;;;5086923;28;20893;-38
2021/03/08 00:05:27;;;;;;;1.92;1.38;;;20.20;43.90;;;;;;5088138;28;20045;-40
2021/03/08 00:07:54;;;;;;;2.60;1.48;;;20.20;43.80;;;;;;5089310;28;20044;-39
2021/03/08 00:10:20;;;;;;;2.33;1.48;;;20.20;43.90;;;;;;5087005;28;20041;-38
2021/03/08 00:12:47;;;;;;;1.30;1.20;;;20.20;43.90;;;;;;5084475;28;20032;-38
2021/03/08 00:15:14;;;;;;;1.77;1.42;;;20.20;43.90;;;;;;5068888;28;20086;-38
2021/03/08 00:17:40;;;;;;;2.25;1.50;;;20.20;43.90;;;;;;5087651;28;20037;-37
2021/03/08 00:20:08;;;;;;;1.73;1.53;;;20.20;43.90;;;;;;5091147;28;20674;-37
2021/03/08 00:22:35;;;;;;;1.85;1.55;;;20.20;43.90;;;;;;5068154;28;20284;-38
2021/03/08 00:25:01;;;;;;;2.30;1.60;;;20.20;43.90;;;;;;5085581;28;20028;-40
2021/03/08 00:27:27;;;;;;;1.80;1.50;;;20.20;43.90;;;;;;5090875;28;20028;-36
2021/03/08 00:29:53;;;;;;;2.58;1.42;;;20.20;43.90;;;;;;5086633;28;20028;-37
2021/03/08 00:32:20;;;;;;;1.58;1.42;;;20.10;44.00;;;;;;5086968;28;20024;-38
2021/03/08 00:34:46;;;;;;;2.28;1.70;;;20.10;44.00;;;;;;5087940;28;20050;-39
2021/03/08 00:37:12;;;;;;;1.90;1.55;;;20.10;44.00;;;;;;5070141;28;20392;-36
2021/03/08 00:39:39;;;;;;;2.03;1.60;;;20.10;44.00;;;;;;5087335;28;20024;-35
2021/03/08 00:42:05;;;;;;;2.13;1.70;;;20.10;43.90;;;;;;5087260;28;20032;-35
2021/03/08 00:44:31;;;;;;;1.97;1.77;;;20.10;43.90;;;;;;5070570;28;20024;-38
2021/03/08 00:46:57;;;;;;;2.22;1.70;;;20.10;43.90;;;;;;5087371;28;20046;-37
2021/03/08 00:49:24;;;;;;;2.88;1.80;;;20.10;43.90;;;;;;5084759;28;20029;-38
2021/03/08 00:51:50;;;;;;;1.85;1.65;;;20.10;44.00;;;;;;5088293;28;20032;-37
2021/03/08 00:54:16;;;;;;;2.22;1.52;;;20.10;44.00;;;;;;5088893;28;20122;-38
2021/03/08 00:56:42;;;;;;;2.75;2.10;;;20.10;44.00;;;;;;5087416;28;20043;-37
2021/03/08 00:59:08;;;;;;;3.22;1.92;;;20.10;44.00;;;;;;5084757;28;20021;-38
2021/03/08 01:01:35;;;;;;;3.35;1.60;;;20.00;44.00;;;;;;5086719;28;20035;-36
2021/03/08 01:04:01;;;;;;;2.28;1.77;;;20.00;44.00;;;;;;5086969;28;20016;-37
2021/03/08 01:06:27;;;;;;;2.50;1.73;;;20.00;44.50;;;;;;5086135;28;20044;-33
2021/03/08 01:08:53;;;;;;;3.42;1.90;;;20.00;44.00;;;;;;5088625;28;20067;-37
2021/03/08 01:11:20;;;;;;;2.33;1.92;;;20.00;44.10;;;;;;5087221;28;20421;-36
2021/03/08 01:13:46;;;;;;;2.38;1.80;;;20.00;44.10;;;;;;5086906;28;20016;-39
2021/03/08 01:16:12;;;;;;;1.75;1.50;;;20.00;44.10;;;;;;5087754;28;20067;-36
2021/03/08 01:18:38;;;;;;;2.45;1.95;;;20.00;44.10;;;;;;5087582;28;20135;-36
2021/03/08 01:21:04;;;;;;;2.80;2.08;;;20.00;44.20;;;;;;5087604;28;20036;-37
2021/03/08 01:23:31;;;;;;;2.10;1.80;;;20.00;44.20;;;;;;5085861;28;20047;-35
2021/03/08 01:25:57;;;;;;;2.00;1.70;;;20.00;44.20;;;;;;5069927;28;20047;-38
2021/03/08 01:28:23;;;;;;;3.00;2.00;;;19.90;44.20;;;;;;5085359;28;20112;-37
2021/03/08 01:30:49;;;;;;;2.88;1.85;;;19.90;44.20;;;;;;5086270;28;20020;-34
2021/03/08 01:33:16;;;;;;;2.20;1.70;;;19.90;44.20;;;;;;5085721;28;20025;-37
2021/03/08 01:35:42;;;;;;;3.03;1.90;;;19.90;44.20;;;;;;5082695;28;20048;-38
2021/03/08 01:38:08;;;;;;;2.53;2.00;;;19.90;44.20;;;;;;5082797;28;20028;-36
2021/03/08 01:40:38;;;;;;;2.67;1.92;;;19.90;44.20;;;;;;5085734;28;20128;-37
2021/03/08 01:43:04;;;;;;;2.72;1.95;;;19.90;44.30;;;;;;5091460;28;20132;-39
2021/03/08 01:45:30;;;;;;;2.30;1.73;;;19.90;44.30;;;;;;5088998;28;20077;-36
2021/03/08 01:47:57;;;;;;;9.65;2.10;;;19.80;44.30;;;;;;5090084;28;20055;-36
2021/03/08 01:50:38;;;;;;;3.03;2.23;;;19.80;44.30;;;;;;5088660;28;20036;-37
2021/03/08 01:53:06;;;;;;;2.90;1.85;;;19.80;44.30;;;;;;5092200;28;20035;-37
2021/03/08 01:55:32;;;;;;;3.35;2.20;;;19.80;44.30;;;;;;5090528;28;20048;-35
2021/03/08 01:57:58;;;;;;;2.20;1.92;;;19.80;44.30;;;;;;5091383;28;20028;-37
2021/03/08 02:00:25;;;;;;;3.65;1.90;;;19.80;44.40;;;;;;5089780;28;20035;-37
2021/03/08 02:02:52;;;;;;;2.65;2.00;;;19.80;44.40;;;;;;5090923;28;20032;-38
2021/03/08 02:05:20;;;;;;;2.17;1.67;;;19.80;44.40;;;;;;5090281;28;20734;-38
2021/03/08 02:07:46;;;;;;;2.72;2.05;;;19.80;44.50;;;;;;5092654;28;20057;-38
2021/03/08 02:10:13;;;;;;;3.13;2.20;;;19.70;44.40;;;;;;5090094;28;20032;-37
2021/03/08 02:12:51;;;;;;;2.83;2.00;;;19.70;44.40;;;;;;5091851;28;20028;-37
2021/03/08 02:15:41;;;;;;;2.65;2.05;;;19.70;44.50;;;;;;5071644;28;20028;-37
2021/03/08 02:18:45;;;;;;;3.08;2.30;;;19.70;44.60;;;;;;5071575;28;20058;-35
2021/03/08 02:21:33;;;;;;;3.17;2.00;;;19.70;44.60;;;;;;5089526;28;20047;-36
2021/03/08 02:24:24;;;;;;;3.37;2.33;;;19.70;44.50;;;;;;5085673;28;20469;-36
2021/03/08 02:27:03;;;;;;;2.42;2.20;;;19.60;44.50;;;;;;5090626;28;20915;-37
2021/03/08 02:29:52;;;;;;;3.80;2.30;;;19.60;44.60;;;;;;5091018;28;20028;-36
2021/03/08 02:32:19;;;;;;;3.22;2.10;;;19.60;44.60;;;;;;5072780;28;20040;-37
2021/03/08 02:35:14;;;;;;;3.70;2.10;;;19.60;44.60;;;;;;5056271;28;20048;-34
2021/03/08 02:37:45;;;;;;;3.13;2.08;;;19.60;44.70;;;;;;5071089;28;20087;-35
2021/03/08 02:40:17;;;;;;;3.30;2.30;;;19.60;44.60;;;;;;5070167;28;20029;-38
2021/03/08 02:42:45;;;;;;;5.07;2.60;;;19.60;44.70;;;;;;5053553;28;20119;-37
2021/03/08 02:45:12;;;;;;;4.28;2.45;;;19.60;44.70;;;;;;5095422;28;20028;-37
2021/03/08 02:47:45;;;;;;;3.63;2.60;;;19.60;44.80;;;;;;5075312;28;20099;-37
2021/03/08 02:50:11;;;;;;;3.08;2.55;;;19.50;44.70;;;;;;5052192;28;20036;-38
2021/03/08 02:52:39;;;;;;;2.85;2.20;;;19.50;44.70;;;;;;5055291;28;20032;-36
2021/03/08 02:55:06;;;;;;;3.90;2.47;;;19.50;44.70;;;;;;5096611;28;20035;-35
2021/03/08 02:57:40;;;;;;;3.28;2.50;;;19.50;44.80;;;;;;5078879;28;20043;-37
2021/03/08 03:00:08;;;;;;;3.13;2.20;;;19.50;44.70;;;;;;5098333;28;20024;-37
2021/03/08 03:02:35;;;;;;;3.17;2.55;;;19.50;44.70;;;;;;5092086;28;20395;-36
2021/03/08 03:05:06;;;;;;;3.58;2.63;;;19.50;44.80;;;;;;5075545;28;20028;-37
2021/03/08 03:07:34;;;;;;;3.38;2.33;;;19.50;44.80;;;;;;5085890;28;20033;-38
2021/03/08 03:10:01;;;;;;;3.47;2.50;;;19.40;44.80;;;;;;5054082;28;20039;-35
2021/03/08 03:12:27;;;;;;;;;;;19.40;44.80;;;;;;5055552;28;20532;-34
2021/03/08 03:14:53;;;;;;;3.45;2.65;;;19.40;45.00;;;;;;5070924;28;19920;-35
2021/03/08 03:17:19;;;;;;;3.28;2.50;;;19.40;44.90;;;;;;5058633;28;20040;-38
2021/03/08 03:19:49;;;;;;;3.53;2.50;;;19.40;44.90;;;;;;5087205;28;20040;-38
2021/03/08 03:22:16;;;;;;;3.60;2.47;;;19.40;44.90;;;;;;5067757;28;20028;-37
2021/03/08 03:24:42;;;;;;;3.08;2.35;;;19.40;44.90;;;;;;5053221;28;20028;-38
2021/03/08 03:27:08;;;;;;;4.28;2.63;;;19.30;44.90;;;;;;5052421;28;20090;-38
2021/03/08 03:29:35;;;;;;;3.35;2.60;;;19.30;44.90;;;;;;5074687;28;20020;-37
2021/03/08 03:32:02;;;;;;;3.30;2.60;;;19.30;45.50;;;;;;5058674;28;20067;-36
2021/03/08 03:34:28;;;;;;;;;;;19.30;44.90;;;;;;5072431;28;20055;-33
2021/03/08 03:36:54;;;;;;;2.97;2.33;;;19.30;45.00;;;;;;5070539;28;19912;-37
2021/03/08 03:39:22;;;;;;;2.53;2.20;;;19.20;44.90;;;;;;5070281;28;20116;-36
2021/03/08 03:41:49;;;;;;;3.78;2.45;;;19.20;45.00;;;;;;5071891;28;20162;-35
2021/03/08 03:44:15;;;;;;;3.22;2.30;;;19.20;45.60;;;;;;5068742;28;20082;-36
2021/03/08 03:46:44;;;;;;;4.72;2.75;;;19.20;45.00;;;;;;5092742;28;20024;-39
2021/03/08 03:49:11;;;;;;;2.78;2.30;;;19.20;45.00;;;;;;5099296;28;20031;-38
2021/03/08 03:51:38;;;;;;;3.00;2.38;;;19.20;45.00;;;;;;5087768;28;20403;-38
2021/03/08 03:54:05;;;;;;;2.85;2.40;;;19.20;45.00;;;;;;5083930;28;20036;-37
2021/03/08 03:56:31;;;;;;;2.40;1.73;;;19.20;45.00;;;;;;5093223;28;20077;-37
2021/03/08 03:59:15;;;;;;;2.80;2.40;;;19.10;45.00;;;;;;5069430;28;20035;-37
2021/03/08 04:01:48;;;;;;;2.78;2.08;;;19.10;45.00;;;;;;5077278;28;20034;-37
2021/03/08 04:04:26;;;;;;;3.20;2.35;;;19.10;45.00;;;;;;5074850;28;20124;-38
2021/03/08 04:06:52;;;;;;;3.97;2.75;;;19.10;45.10;;;;;;5091791;28;20036;-36
2021/03/08 04:09:20;;;;;;;4.07;2.25;;;19.10;45.10;;;;;;5070665;28;20351;-36
2021/03/08 04:11:46;;;;;;;;;;;19.00;45.10;;;;;;5072804;28;20051;-37
2021/03/08 04:14:15;;;;;;;4.13;2.80;;;19.00;45.10;;;;;;5086172;28;19916;-36
2021/03/08 04:16:42;;;;;;;3.30;2.50;;;19.00;45.70;;;;;;5072559;28;20032;-38
2021/03/08 04:19:08;;;;;;;2.75;2.35;;;19.00;45.10;;;;;;5075891;28;20029;-39
2021/03/08 04:21:35;;;;;;;2.92;2.30;;;19.00;45.20;;;;;;5047298;28;20092;-38
2021/03/08 04:24:01;;;;;;;3.15;2.63;;;19.00;45.20;;;;;;5050405;28;20137;-35
2021/03/08 04:26:27;;;;;;;3.38;2.35;;;19.00;45.30;;;;;;5054114;28;20024;-37
2021/03/08 04:28:53;;;;;;;2.60;2.08;;;18.90;45.20;;;;;;5075046;28;20032;-37
2021/03/08 04:31:20;;;;;;;4.10;2.30;;;18.90;45.20;;;;;;5097093;28;20105;-36
2021/03/08 04:33:46;;;;;;;2.55;2.08;;;18.90;45.20;;;;;;5093225;28;20035;-37
2021/03/08 04:36:12;;;;;;;2.80;2.30;;;18.90;45.20;;;;;;5070259;28;20040;-38
2021/03/08 04:38:40;;;;;;;3.20;2.55;;;18.90;45.20;;;;;;5071436;28;20043;-37
2021/03/08 04:41:06;;;;;;;3.75;2.33;;;18.90;45.30;;;;;;5041503;28;20567;-38
2021/03/08 04:43:32;;;;;;;3.00;2.70;;;18.90;45.30;;;;;;5067861;28;20055;-34
2021/03/08 04:45:58;;;;;;;3.78;2.55;;;18.90;45.30;;;;;;5071634;28;20044;-37
2021/03/08 04:48:25;;;;;;;2.55;2.17;;;18.90;45.30;;;;;;5067927;28;20624;-36
2021/03/08 04:50:51;;;;;;;3.63;2.60;;;18.80;45.30;;;;;;5053194;28;20044;-37
2021/03/08 04:53:17;;;;;;;3.05;2.30;;;18.80;45.30;;;;;;5072511;28;20060;-37
2021/03/08 04:55:43;;;;;;;2.90;2.17;;;18.80;45.40;;;;;;5067767;28;20035;-35
2021/03/08 04:58:10;;;;;;;3.13;2.30;;;18.80;45.40;;;;;;5053268;28;20033;-35
2021/03/08 05:00:37;;;;;;;2.90;2.40;;;18.80;45.40;;;;;;5052417;28;20111;-35
2021/03/08 05:03:04;;;;;;;2.30;2.08;;;18.70;45.40;;;;;;5078595;28;20483;-38
2021/03/08 05:05:30;;;;;;;2.90;2.20;;;18.70;45.40;;;;;;5086619;28;20062;-37
2021/03/08 05:08:02;;;;;;;3.35;2.40;;;18.70;45.50;;;;;;5066301;28;20285;-36
2021/03/08 05:10:29;;;;;;;2.72;2.03;;;18.70;45.40;;;;;;5057827;28;20029;-38
2021/03/08 05:12:55;;;;;;;2.50;2.30;;;18.70;45.40;;;;;;5072214;28;20028;-38
2021/03/08 05:15:22;;;;;;;2.63;2.22;;;18.70;45.50;;;;;;5054691;28;20056;-37
2021/03/08 05:17:51;;;;;;;2.35;2.00;;;18.70;45.60;;;;;;5073392;28;20032;-38
2021/03/08 05:20:17;;;;;;;2.78;2.10;;;18.70;45.70;;;;;;5056224;28;20089;-39
2021/03/08 05:22:43;;;;;;;3.13;2.42;;;18.60;45.60;;;;;;5069749;28;20055;-34
2021/03/08 05:25:10;;;;;;;3.38;2.40;;;18.60;45.70;;;;;;5089195;28;20028;-41
2021/03/08 05:27:37;;;;;;;3.45;2.65;;;18.60;46.20;;;;;;5068427;28;20057;-35
2021/03/08 05:30:05;;;;;;;3.58;2.40;;;18.60;45.80;;;;;;5070640;28;20039;-37
2021/03/08 05:32:35;;;;;;;4.03;2.20;;;18.60;45.70;;;;;;5089782;28;20351;-36
2021/03/08 05:35:02;;;;;;;2.72;2.20;;;18.50;46.30;;;;;;5053957;28;20017;-37
2021/03/08 05:37:28;;;;;;;3.60;2.50;;;18.50;45.80;;;;;;5071543;28;20040;-38
2021/03/08 05:39:55;;;;;;;3.15;2.13;;;18.50;45.80;;;;;;5092044;28;20126;-37
2021/03/08 05:42:21;;;;;;;3.22;2.33;;;18.50;45.80;;;;;;5069645;28;20054;-33
2021/03/08 05:45:02;;;;;;;3.40;2.20;;;18.50;45.90;;;;;;5075785;28;20038;-37
2021/03/08 05:47:59;;;;;;;2.78;2.05;;;18.50;45.90;;;;;;5090187;28;20025;-36
2021/03/08 05:50:53;;;;;;;4.43;2.30;;;18.40;45.90;;;;;;5094840;28;20092;-36
2021/03/08 05:53:25;;;;;;;2.78;2.28;;;18.40;45.90;;;;;;5086657;28;20035;-36
2021/03/08 05:56:18;;;;;;;2.97;2.28;;;18.40;45.90;;;;;;5087654;28;20043;-38
2021/03/08 05:59:10;;;;;;;4.93;2.30;;;18.40;46.00;;;;;;5075974;28;20036;-36
2021/03/08 06:01:54;;;;;;;2.67;2.40;;;18.40;46.00;;;;;;5086231;28;20024;-34
2021/03/08 06:04:58;;;;;;;4.68;2.70;;;18.30;46.00;;;;;;5089478;28;20135;-38
2021/03/08 06:07:31;;;;;;;3.08;2.53;;;18.30;46.00;;;;;;5089097;28;20043;-37
2021/03/08 06:10:07;;;;;;;3.65;2.00;;;18.30;46.00;;;;;;5084853;28;20089;-36
2021/03/08 06:12:37;;;;;;;2.78;2.35;;;18.30;46.00;;;;;;5085924;28;20036;-36
2021/03/08 06:15:15;;;;;;;2.45;2.08;;;18.30;46.00;;;;;;5090744;28;20145;-36
2021/03/08 06:17:43;;;;;;;2.92;2.22;;;18.30;46.10;;;;;;5086866;28;20044;-36
2021/03/08 06:20:09;;;;;;;3.13;2.40;;;18.30;46.00;;;;;;5080707;28;20040;-38
2021/03/08 06:22:36;;;;;;;2.90;2.30;;;18.30;46.10;;;;;;5078987;28;20033;-37
2021/03/08 06:25:03;;;;;;;4.32;2.50;;;18.30;46.10;;;;;;5064936;28;20272;-38
2021/03/08 06:27:29;;;;;;;3.13;2.40;;;18.20;46.10;;;;;;5082844;28;20035;-37
2021/03/08 06:29:55;;;;;;;5.05;2.63;;;18.20;46.10;;;;;;5085685;28;20111;-35
2021/03/08 06:32:21;;;;;;;2.58;2.10;;;18.20;46.10;;;;;;5055186;28;20032;-35
2021/03/08 06:34:47;;;;;;;4.03;2.65;;;18.20;46.10;;;;;;5092914;28;20051;-36
2021/03/08 06:37:14;;;;;;;3.80;2.40;;;18.20;46.10;;;;;;5087760;28;20045;-37
2021/03/08 06:39:42;;;;;;;3.20;2.53;;;18.20;46.80;;;;;;5075954;28;20027;-36
2021/03/08 06:42:09;;;;;;;3.47;2.60;;;18.20;46.20;;;;;;5089781;28;20059;-35
2021/03/08 06:44:35;;;;;;;2.75;2.25;;;18.20;46.20;;;;;;5093461;28;20021;-36
2021/03/08 06:47:01;;;;;;;3.30;2.40;;;18.20;46.20;;;;;;5080472;28;20032;-36
2021/03/08 06:49:27;;;;;;;3.38;2.58;;;18.20;46.30;;;;;;5095569;28;20027;-36
2021/03/08 06:52:13;;;;;;;3.00;2.33;;;18.20;46.30;;;;;;5088868;28;20035;-38
2021/03/08 06:54:43;;;;;;;3.25;2.58;;;18.20;46.40;;;;;;5073027;28;20703;-35
2021/03/08 06:57:29;;;;;;;3.30;2.33;;;18.10;46.30;;;;;;5089631;28;20037;-36
2021/03/08 07:00:06;;;;;;;2.97;2.35;;;18.20;46.40;;;;;;5090442;28;20081;-39
2021/03/08 07:02:45;;;;;;;3.10;2.50;;;18.10;46.40;;;;;;5090088;28;20145;-37
2021/03/08 07:05:13;;;;;;;4.05;2.50;;;18.10;46.40;;;;;;5086116;28;20035;-38
2021/03/08 07:07:57;;;;;;;3.53;2.53;;;18.10;46.50;;;;;;5085026;28;20044;-38
2021/03/08 07:10:40;;;;;;;3.20;2.80;;;18.10;46.50;;;;;;5094439;28;20036;-37
2021/03/08 07:13:10;;;;;;;2.90;2.50;;;18.10;46.50;;;;;;5089562;28;20063;-37
2021/03/08 07:15:56;;;;;;;3.40;2.80;;;18.10;46.50;;;;;;5091112;28;20096;-35
2021/03/08 07:18:22;;;;;;;2.70;2.50;;;18.10;46.60;;;;;;5087426;28;20046;-39
2021/03/08 07:21:18;;;;;;;3.00;2.45;;;18.10;47.10;;;;;;5097171;28;20028;-38
2021/03/08 07:23:46;;;;;;;3.13;2.50;;;18.10;46.60;;;;;;5088792;28;20031;-37
2021/03/08 07:26:17;;;;;;;3.72;2.60;;;18.10;46.60;;;;;;5089833;28;20864;-38
2021/03/08 07:28:43;;;;;;;3.45;2.45;;;18.10;46.60;;;;;;5089285;28;20052;-35
2021/03/08 07:31:30;;;;;;;4.15;2.67;;;18.10;46.70;;;;;;5094981;28;20092;-37
2021/03/08 07:34:00;;;;;;;3.00;2.40;;;18.00;46.60;;;;;;5072499;28;20044;-38
2021/03/08 07:36:26;;;;;;;3.17;2.40;;;18.10;46.70;;;;;;5091643;28;20088;-37
2021/03/08 07:38:52;;;;;;;4.47;2.95;;;18.00;46.70;;;;;;5089203;28;20028;-35
2021/03/08 07:41:23;;;;;;;3.55;2.78;;;18.00;46.70;;;;;;5085554;28;20032;-38
2021/03/08 07:43:50;;;;;;;3.75;2.90;;;18.00;46.70;;;;;;5094677;28;20036;-37
2021/03/08 07:46:30;;;;;;;2.70;2.30;;;18.00;46.70;;;;;;5097324;28;20024;-37
2021/03/08 07:48:57;;;;;;;3.53;2.67;;;18.00;46.70;;;;;;5086988;28;20087;-34
2021/03/08 07:51:23;;;;;;;3.20;2.75;;;18.00;46.80;;;;;;5081978;28;20090;-37
2021/03/08 07:54:04;;;;;;;3.70;2.75;;;18.00;46.80;;;;;;5085943;28;20061;-38
2021/03/08 07:56:31;;;;;;;3.33;2.45;;;18.00;46.80;;;;;;5090414;28;20127;-37
2021/03/08 07:58:57;;;;;;;3.08;2.50;;;18.00;46.80;;;;;;5092872;28;20543;-36
2021/03/08 08:01:23;;;;;;;3.22;2.78;;;17.90;46.80;;;;;;5090979;28;20521;-35
2021/03/08 08:03:50;;;;;;;4.82;3.08;;;18.00;46.80;;;;;;5075542;28;20242;-37
2021/03/08 08:06:23;;;;;;;3.10;2.65;;;18.00;46.90;;;;;;5088919;28;20033;-37
2021/03/08 08:08:54;;;;;;;3.72;2.80;;;17.90;46.80;;;;;;5088503;28;20116;-36
2021/03/08 08:11:21;;;;;;;4.22;2.80;;;17.90;46.80;;;;;;5092079;28;20052;-37
2021/03/08 08:13:54;;;;;;;4.15;3.10;;;17.90;46.90;;;;;;5090594;28;20032;-36
2021/03/08 08:16:24;;;;;;;3.47;3.17;;;17.90;46.80;;;;;;5074274;28;20512;-36
2021/03/08 08:18:53;;;;;;;4.75;2.95;;;17.90;46.90;;;;;;5063387;28;20044;-36
2021/03/08 08:21:20;;;;;;;3.55;2.95;;;17.90;46.90;;;;;;5090307;28;20032;-38
2021/03/08 08:23:48;;;;;;;4.68;3.58;;;17.90;46.90;;;;;;5090932;28;20069;-35
2021/03/08 08:26:18;;;;;;;4.13;3.25;;;17.90;47.00;;;;;;5053823;28;20035;-37
2021/03/08 08:28:45;;;;;;;3.83;2.97;;;17.90;47.00;;;;;;5076965;28;20026;-38
2021/03/08 08:31:11;;;;;;;3.83;3.08;;;17.90;47.00;;;;;;5068655;28;20031;-36
2021/03/08 08:33:37;;;;;;;4.43;3.35;;;17.80;47.00;;;;;;5070431;28;20032;-36
2021/03/08 08:36:19;;;;;;;3.90;3.22;;;17.90;47.10;;;;;;5090972;28;20090;-38
2021/03/08 08:39:08;;;;;;;4.13;3.53;;;17.90;47.00;;;;;;5088378;28;20024;-37
2021/03/08 08:41:35;;;;;;;4.25;3.08;;;17.80;47.00;;;;;;5084129;28;20706;-36
2021/03/08 08:44:12;;;;;;;4.90;3.67;;;17.80;47.00;;;;;;5086113;28;20033;-36
2021/03/08 08:46:39;;;;;;;3.70;3.20;;;17.80;47.00;;;;;;5086118;28;20032;-36
2021/03/08 08:49:09;;;;;;;;;;;17.80;47.10;;;;;;5089476;28;20135;-36
2021/03/08 08:51:48;;;;;;;4.22;3.55;;;17.80;47.10;;;;;;5090442;28;19971;-35
2021/03/08 08:54:30;;;;;;;4.32;3.40;;;17.80;47.10;;;;;;5086347;28;20044;-37
2021/03/08 08:57:19;;;;;;;4.72;3.30;;;17.70;47.10;;;;;;5092732;28;20047;-37
2021/03/08 08:59:49;;;;;;;4.25;3.53;;;17.70;47.20;;;;;;5086755;28;20480;-35
2021/03/08 09:04:41;;;;;;;3.95;3.47;;;17.80;47.20;;;;;;5091184;28;20560;-42
2021/03/08 09:07:21;;;;;;;4.85;3.72;;;17.80;47.20;;;;;;5073456;28;20846;-37
2021/03/08 09:09:47;;;;;;;4.82;3.83;;;17.80;47.20;;;;;;5085927;28;20516;-36
2021/03/08 09:12:41;;;;;;;4.43;3.47;;;17.70;47.20;;;;;;5092050;28;20043;-35
2021/03/08 09:15:12;;;;;;;4.20;3.72;;;17.70;47.30;;;;;;5088037;28;20586;-37
2021/03/08 09:17:45;;;;;;;5.22;3.92;;;17.70;47.20;;;;;;5094008;28;20051;-38
2021/03/08 09:20:14;;;;;;;4.43;3.78;;;17.70;47.30;;;;;;5091721;28;20123;-36
2021/03/08 09:22:50;;;;;;;4.05;3.53;;;17.70;47.30;;;;;;5091280;28;20030;-34
2021/03/08 09:25:23;;;;;;;5.30;4.10;;;17.70;47.30;;;;;;5086917;28;20087;-36
2021/03/08 09:28:00;;;;;;;5.55;4.07;;;17.70;47.30;;;;;;5088123;28;20052;-35
2021/03/08 09:30:30;;;;;;;4.63;3.72;;;17.60;47.30;;;;;;5090867;28;20039;-36
2021/03/08 09:33:13;;;;;;;5.07;4.38;;;17.60;47.30;;;;;;5086737;28;20061;-37
2021/03/08 09:35:50;;;;;;;5.35;4.25;;;17.70;47.30;;;;;;5088861;28;20042;-37
2021/03/08 09:38:21;;;;;;;4.70;4.10;;;17.60;47.30;;;;;;5086101;28;20028;-37
2021/03/08 09:40:51;;;;;;;4.68;4.13;;;17.60;47.30;;;;;;5086332;28;20039;-36
2021/03/08 09:43:18;;;;;;;5.07;4.20;;;17.60;47.90;;;;;;5083760;28;20043;-38
2021/03/08 09:45:44;;;;;;;5.40;4.70;;;17.60;47.30;;;;;;5087130;28;20082;-35
2021/03/08 09:48:13;;;;;;;5.35;4.30;;;17.60;47.30;;;;;;5097562;28;20128;-34
2021/03/08 09:50:39;;;;;;;5.30;4.40;;;17.60;47.40;;;;;;5096242;28;20042;-36
2021/03/08 09:53:05;;;;;;;5.10;4.35;;;17.60;47.30;;;;;;5087807;28;20043;-37
2021/03/08 09:55:33;;;;;;;4.57;4.03;;;17.60;47.30;;;;;;5092402;28;20043;-36
2021/03/08 09:58:19;;;;;;;5.13;4.35;;;17.60;47.40;;;;;;5088323;28;20273;-37
2021/03/08 10:00:47;;;;;;;5.10;4.35;;;17.60;47.40;;;;;;5094139;28;20034;-36
2021/03/08 10:03:13;;;;;;;6.30;4.55;;;17.60;47.40;;;;;;5093244;28;20028;-36
2021/03/08 10:05:50;;;;;;;4.93;4.22;;;17.60;47.40;;;;;;5093819;28;20109;-34
2021/03/08 10:08:18;;;;;;;5.40;4.32;;;17.50;47.30;;;;;;5097434;28;20051;-36
2021/03/08 10:10:51;;;;;;;6.38;4.53;;;17.50;47.30;;;;;;5088963;28;20031;-35
2021/03/08 10:13:18;;;;;;;5.78;4.03;;;17.50;47.40;;;;;;5096576;28;20032;-36
2021/03/08 10:15:55;;;;;;;5.35;4.28;;;17.50;47.40;;;;;;5079812;28;20028;-36
2021/03/08 10:18:29;;;;;;;5.70;4.63;;;17.50;47.40;;;;;;5090993;28;20045;-37
2021/03/08 10:21:00;;;;;;;6.38;5.18;;;17.50;47.40;;;;;;5100400;28;20035;-35
2021/03/08 10:23:34;;;;;;;6.50;5.13;;;17.50;47.40;;;;;;5079501;28;20024;-37
2021/03/08 10:26:14;;;;;;;5.88;4.60;;;17.50;47.40;;;;;;5096168;28;20028;-38
2021/03/08 10:28:42;;;;;;;6.63;5.15;;;17.50;47.40;;;;;;5088718;28;20036;-37
2021/03/08 10:31:21;;;;;;;5.13;4.63;;;17.50;47.40;;;;;;5092094;28;20051;-38
2021/03/08 10:33:50;;;;;;;5.78;5.18;;;17.50;47.50;;;;;;5090966;28;20028;-34
2021/03/08 10:36:20;;;;;;;6.65;5.28;;;17.40;47.40;;;;;;5067182;28;20488;-36
2021/03/08 10:38:52;;;;;;;5.35;4.70;;;17.40;47.50;;;;;;5051791;28;20017;-36
2021/03/08 10:41:20;;;;;;;5.97;4.82;;;17.40;47.40;;;;;;5055543;28;20056;-36
2021/03/08 10:43:46;;;;;;;6.93;5.00;;;17.40;47.40;;;;;;5058334;28;20036;-35
2021/03/08 10:46:12;;;;;;;6.50;5.28;;;17.40;47.40;;;;;;5074832;28;20020;-34
2021/03/08 10:48:56;;;;;;;5.95;5.15;;;17.40;47.40;;;;;;5080022;28;20175;-36
2021/03/08 10:51:23;;;;;;;6.97;5.38;;;17.40;47.50;;;;;;5094364;28;20040;-37
2021/03/08 10:54:05;;;;;;;6.63;5.03;;;17.40;47.50;;;;;;5089506;28;20032;-34
2021/03/08 10:56:32;;;;;;;6.50;5.60;;;17.40;47.50;;;;;;5093336;28;20303;-37
2021/03/08 10:58:59;;;;;;;7.10;5.70;;;17.30;47.50;;;;;;5089932;28;20029;-37
2021/03/08 11:01:26;;;;;;;6.93;5.88;;;17.30;47.50;;;;;;5093852;28;20040;-36
2021/03/08 11:03:52;;;;;;;7.82;6.20;;;17.40;47.50;;;;;;5072036;28;20035;-35
2021/03/08 11:06:20;;;;;;;6.47;5.77;;;17.30;47.50;;;;;;5086132;28;20033;-35
2021/03/08 11:08:59;;;;;;;7.35;5.80;;;17.30;47.50;;;;;;5086752;28;20047;-37
2021/03/08 11:11:33;;;;;;;6.60;5.53;;;17.30;47.60;;;;;;5090898;28;20036;-33
2021/03/08 11:14:00;;;;;;;6.53;5.53;;;17.30;47.60;;;;;;5086567;28;20032;-37
2021/03/08 11:16:26;;;;;;;6.93;5.65;;;17.30;47.60;;;;;;5090614;28;20036;-36
2021/03/08 11:18:52;;;;;;;5.53;5.00;;;17.30;47.60;;;;;;5090298;28;20139;-36
2021/03/08 11:21:23;;;;;;;6.78;5.60;;;17.30;47.60;;;;;;5093167;28;20029;-36
2021/03/08 11:23:50;;;;;;;7.45;5.93;;;17.30;47.60;;;;;;5075223;28;20042;-36
2021/03/08 11:26:16;;;;;;;7.00;5.97;;;17.30;47.60;;;;;;5068395;28;20028;-37
2021/03/08 11:28:43;;;;;;;6.72;5.80;;;17.30;47.60;;;;;;5088671;28;20081;-37
2021/03/08 11:31:25;;;;;;;7.70;6.05;;;17.20;47.60;;;;;;5090052;28;20028;-34
2021/03/08 11:33:53;;;;;;;7.20;5.78;;;17.20;47.60;;;;;;5086120;28;20037;-36
2021/03/08 11:36:35;;;;;;;6.63;5.40;;;17.20;47.60;;;;;;5066577;28;20062;-35
2021/03/08 11:39:05;;;;;;;6.93;5.78;;;17.20;47.60;;;;;;5086015;28;20050;-37
2021/03/08 11:41:33;;;;;;;6.90;6.00;;;17.20;47.70;;;;;;5063566;28;20367;-36
2021/03/08 11:43:59;;;;;;;8.13;6.00;;;17.20;47.80;;;;;;5068681;28;20029;-37
2021/03/08 11:46:25;;;;;;;5.43;3.97;;;17.20;47.80;;;;;;5092575;28;20048;-37
2021/03/08 11:49:06;;;;;;;6.90;6.00;;;17.20;47.80;;;;;;5090729;28;20309;-32
2021/03/08 11:51:32;;;;;;;8.02;6.35;;;17.20;47.80;;;;;;5063845;28;20066;-35
2021/03/08 11:53:58;;;;;;;8.18;6.35;;;17.20;47.80;;;;;;5087344;28;20062;-35
2021/03/08 11:56:25;;;;;;;7.93;6.15;;;17.20;47.80;;;;;;5092803;28;20070;-37
2021/03/08 11:58:53;;;;;;;7.30;6.15;;;17.20;47.80;;;;;;5086765;28;20117;-36
2021/03/08 12:01:19;;;;;;;;;;;17.10;47.80;;;;;;5094071;28;20085;-36
2021/03/08 12:03:45;;;;;;;7.97;6.10;;;17.10;47.70;;;;;;5092658;28;20013;-37
2021/03/08 12:06:11;;;;;;;7.00;6.15;;;17.10;47.80;;;;;;5093982;28;20151;-39
2021/03/08 12:08:37;;;;;;;7.45;6.20;;;17.10;47.80;;;;;;5087562;28;20040;-37
2021/03/08 12:11:04;;;;;;;8.32;6.63;;;17.10;47.80;;;;;;5091425;28;20031;-37
2021/03/08 12:13:30;;;;;;;6.57;5.93;;;17.10;47.80;;;;;;5093867;28;20062;-37
2021/03/08 12:15:57;;;;;;;7.30;6.22;;;17.10;47.80;;;;;;5087795;28;20432;-36
2021/03/08 12:18:23;;;;;;;6.53;5.57;;;17.10;47.80;;;;;;5090437;28;20155;-37
2021/03/08 12:20:49;;;;;;;8.15;6.15;;;17.10;47.80;;;;;;5088928;28;20023;-35
2021/03/08 12:23:16;;;;;;;9.13;6.55;;;17.10;47.80;;;;;;5092802;28;20089;-34
2021/03/08 12:25:42;;;;;;;8.52;6.15;;;17.00;47.80;;;;;;5088587;28;20117;-35
2021/03/08 12:28:08;;;;;;;7.05;6.20;;;17.00;47.80;;;;;;5085331;28;20050;-36
2021/03/08 12:30:34;;;;;;;8.18;6.57;;;17.00;47.80;;;;;;5093417;28;20100;-34
2021/03/08 12:33:00;;;;;;;8.15;6.82;;;17.00;47.80;;;;;;5088960;28;20024;-33
2021/03/08 12:35:26;;;;;;;7.45;6.40;;;17.00;47.90;;;;;;5094085;28;20020;-35
2021/03/08 12:37:53;;;;;;;8.15;6.50;;;17.00;47.80;;;;;;5095149;28;20044;-35
2021/03/08 12:40:19;;;;;;;7.55;6.53;;;17.00;47.90;;;;;;5089706;28;20045;-33
2021/03/08 12:42:45;;;;;;;7.28;6.43;;;17.00;47.90;;;;;;5083782;28;20036;-37
2021/03/08 12:45:12;;;;;;;8.85;7.13;;;17.00;47.90;;;;;;5094209;28;20016;-35
2021/03/08 12:47:38;;;;;;;7.00;5.95;;;17.00;47.80;;;;;;5087336;28;20017;-37
2021/03/08 12:50:05;;;;;;;7.55;6.30;;;17.00;47.90;;;;;;5096710;28;20036;-37
2021/03/08 12:52:31;;;;;;;7.85;6.30;;;17.00;47.90;;;;;;5083586;28;20123;-35
2021/03/08 12:54:57;;;;;;;7.68;6.32;;;17.00;47.90;;;;;;5095032;28;20031;-35
2021/03/08 12:57:23;;;;;;;7.40;6.35;;;17.00;47.90;;;;;;5086508;28;20044;-33
2021/03/08 12:59:49;;;;;;;9.18;6.50;;;17.00;47.90;;;;;;5073849;28;20039;-36
2021/03/08 13:02:15;;;;;;;7.72;6.45;;;17.00;47.90;;;;;;5082347;28;20063;-34
2021/03/08 13:04:41;;;;;;;7.80;6.43;;;17.00;48.00;;;;;;5088233;28;20024;-36